sensor_id;sensor_type;location;lat;lon;timestamp;temperature;humidity
13405;DHT22;6773;51.192;7.024;2023-03-23T00:00:47;11.30;99.90
13405;DHT22;6773;51.192;7.024;2023-03-23T00:05:39;11.30;99.90
13405;DHT22;6773;51.192;7.024;2023-03-23T00:08:07;11.30;99.90
13405;DHT22;6773;51.192;7.024;2023-03-23T00:10:35;11.40;99.90
13405;DHT22;6773;51.192;7.024;2023-03-23T00:13:01;11.40;99.90
13405;DHT22;6773;51.192;7.024;2023-03-23T00:15:30;11.40;99.90
13405;DHT22;6773;51.192;7.024;2023-03-23T00:18:01;11.40;99.90
13405;DHT22;6773;51.192;7.024;2023-03-23T00:20:28;11.40;99.90
13405;DHT22;6773;51.192;7.024;2023-03-23T00:22:55;11.40;99.90
13405;DHT22;6773;51.192;7.024;2023-03-23T00:25:25;11.50;99.90
13405;DHT22;6773;51.192;7.024;2023-03-23T00:27:51;11.60;99.90
13405;DHT22;6773;51.192;7.024;2023-03-23T00:30:16;9.90;99.90
13405;DHT22;6773;51.192;7.024;2023-03-23T00:35:09;11.70;99.90
13405;DHT22;6773;51.192;7.024;2023-03-23T00:37:34;11.70;99.90
13405;DHT22;6773;51.192;7.024;2023-03-23T00:40:01;11.70;99.90
13405;DHT22;6773;51.192;7.024;2023-03-23T00:42:31;11.70;99.90
13405;DHT22;6773;51.192;7.024;2023-03-23T00:47:28;11.80;99.90
13405;DHT22;6773;51.192;7.024;2023-03-23T00:49:53;11.80;99.90
13405;DHT22;6773;51.192;7.024;2023-03-23T00:52:21;11.80;99.90
13405;DHT22;6773;51.192;7.024;2023-03-23T00:54:47;11.80;99.90
13405;DHT22;6773;51.192;7.024;2023-03-23T00:57:13;11.80;99.90
13405;DHT22;6773;51.192;7.024;2023-03-23T00:59:38;11.80;99.90
13405;DHT22;6773;51.192;7.024;2023-03-23T01:02:04;11.90;99.90
13405;DHT22;6773;51.192;7.024;2023-03-23T01:04:30;11.90;99.90
13405;DHT22;6773;51.192;7.024;2023-03-23T01:06:57;11.90;99.90
13405;DHT22;6773;51.192;7.024;2023-03-23T01:09:25;11.90;99.90
13405;DHT22;6773;51.192;7.024;2023-03-23T01:11:53;11.90;99.90
13405;DHT22;6773;51.192;7.024;2023-03-23T01:14:20;11.80;99.90
13405;DHT22;6773;51.192;7.024;2023-03-23T01:16:46;11.90;99.90
13405;DHT22;6773;51.192;7.024;2023-03-23T01:19:12;11.90;99.90
13405;DHT22;6773;51.192;7.024;2023-03-23T01:21:38;11.90;99.90
13405;DHT22;6773;51.192;7.024;2023-03-23T01:24:04;11.90;99.90
13405;DHT22;6773;51.192;7.024;2023-03-23T01:26:29;11.90;99.90
13405;DHT22;6773;51.192;7.024;2023-03-23T01:28:55;11.90;99.90
13405;DHT22;6773;51.192;7.024;2023-03-23T01:31:24;11.80;99.90
13405;DHT22;6773;51.192;7.024;2023-03-23T01:33:50;11.80;99.90
13405;DHT22;6773;51.192;7.024;2023-03-23T01:36:19;11.70;99.90
13405;DHT22;6773;51.192;7.024;2023-03-23T01:38:46;11.70;99.90
13405;DHT22;6773;51.192;7.024;2023-03-23T01:41:13;11.60;99.90
13405;DHT22;6773;51.192;7.024;2023-03-23T01:44:04;11.60;99.90
13405;DHT22;6773;51.192;7.024;2023-03-23T01:46:32;11.50;99.90
13405;DHT22;6773;51.192;7.024;2023-03-23T01:49:02;11.40;99.90
13405;DHT22;6773;51.192;7.024;2023-03-23T01:51:34;11.30;99.90
13405;DHT22;6773;51.192;7.024;2023-03-23T01:54:03;11.20;99.90
13405;DHT22;6773;51.192;7.024;2023-03-23T01:56:35;11.20;99.90
13405;DHT22;6773;51.192;7.024;2023-03-23T01:59:03;11.10;99.90
13405;DHT22;6773;51.192;7.024;2023-03-23T02:03:55;11.00;99.90
13405;DHT22;6773;51.192;7.024;2023-03-23T02:08:49;11.00;99.90
13405;DHT22;6773;51.192;7.024;2023-03-23T02:11:17;10.90;99.90
13405;DHT22;6773;51.192;7.024;2023-03-23T02:13:43;10.80;99.90
13405;DHT22;6773;51.192;7.024;2023-03-23T02:16:37;10.80;99.90
13405;DHT22;6773;51.192;7.024;2023-03-23T02:25:21;10.60;99.90
13405;DHT22;6773;51.192;7.024;2023-03-23T02:35:52;10.60;99.90
13405;DHT22;6773;51.192;7.024;2023-03-23T02:38:35;10.60;99.90
13405;DHT22;6773;51.192;7.024;2023-03-23T02:41:03;10.60;99.90
13405;DHT22;6773;51.192;7.024;2023-03-23T02:43:33;10.60;99.90
13405;DHT22;6773;51.192;7.024;2023-03-23T02:46:04;10.60;99.90
13405;DHT22;6773;51.192;7.024;2023-03-23T02:48:32;10.60;99.90
13405;DHT22;6773;51.192;7.024;2023-03-23T02:51:00;10.60;99.90
13405;DHT22;6773;51.192;7.024;2023-03-23T02:53:28;10.70;99.90
13405;DHT22;6773;51.192;7.024;2023-03-23T02:55:56;10.60;99.90
13405;DHT22;6773;51.192;7.024;2023-03-23T02:58:22;10.60;99.90
13405;DHT22;6773;51.192;7.024;2023-03-23T03:00:51;10.60;99.90
13405;DHT22;6773;51.192;7.024;2023-03-23T03:03:21;10.60;99.90
13405;DHT22;6773;51.192;7.024;2023-03-23T03:08:28;10.60;99.90
13405;DHT22;6773;51.192;7.024;2023-03-23T03:11:07;10.60;99.90
13405;DHT22;6773;51.192;7.024;2023-03-23T03:13:46;10.60;99.90
13405;DHT22;6773;51.192;7.024;2023-03-23T03:16:20;10.60;99.90
13405;DHT22;6773;51.192;7.024;2023-03-23T03:19:02;10.60;99.90
13405;DHT22;6773;51.192;7.024;2023-03-23T03:21:31;10.60;99.90
13405;DHT22;6773;51.192;7.024;2023-03-23T03:24:01;10.60;99.90
13405;DHT22;6773;51.192;7.024;2023-03-23T03:26:30;10.70;99.90
13405;DHT22;6773;51.192;7.024;2023-03-23T03:28:57;10.70;99.90
13405;DHT22;6773;51.192;7.024;2023-03-23T03:31:30;10.70;99.90
13405;DHT22;6773;51.192;7.024;2023-03-23T03:33:57;10.70;99.90
13405;DHT22;6773;51.192;7.024;2023-03-23T03:36:28;10.70;99.90
13405;DHT22;6773;51.192;7.024;2023-03-23T03:39:07;10.80;99.90
13405;DHT22;6773;51.192;7.024;2023-03-23T03:41:37;10.80;99.90
13405;DHT22;6773;51.192;7.024;2023-03-23T03:44:04;10.80;99.90
13405;DHT22;6773;51.192;7.024;2023-03-23T03:46:31;10.80;99.90
13405;DHT22;6773;51.192;7.024;2023-03-23T03:49:01;10.90;99.90
13405;DHT22;6773;51.192;7.024;2023-03-23T03:51:29;10.90;99.90
13405;DHT22;6773;51.192;7.024;2023-03-23T03:53:55;10.90;99.90
13405;DHT22;6773;51.192;7.024;2023-03-23T03:56:21;10.90;99.90
13405;DHT22;6773;51.192;7.024;2023-03-23T03:58:48;11.00;99.90
13405;DHT22;6773;51.192;7.024;2023-03-23T04:01:15;11.00;99.90
13405;DHT22;6773;51.192;7.024;2023-03-23T04:03:41;11.00;99.90
13405;DHT22;6773;51.192;7.024;2023-03-23T04:06:08;11.00;99.90
13405;DHT22;6773;51.192;7.024;2023-03-23T04:08:35;11.00;99.90
13405;DHT22;6773;51.192;7.024;2023-03-23T04:11:03;11.10;99.90
13405;DHT22;6773;51.192;7.024;2023-03-23T04:13:29;11.10;99.90
13405;DHT22;6773;51.192;7.024;2023-03-23T04:15:55;11.00;99.90
13405;DHT22;6773;51.192;7.024;2023-03-23T04:18:21;11.00;99.90
13405;DHT22;6773;51.192;7.024;2023-03-23T04:20:48;11.10;99.90
13405;DHT22;6773;51.192;7.024;2023-03-23T04:23:18;11.00;99.90
13405;DHT22;6773;51.192;7.024;2023-03-23T04:25:48;11.00;99.90
13405;DHT22;6773;51.192;7.024;2023-03-23T04:28:15;11.00;99.90
13405;DHT22;6773;51.192;7.024;2023-03-23T04:30:45;11.00;99.90
13405;DHT22;6773;51.192;7.024;2023-03-23T04:33:14;11.00;99.90
13405;DHT22;6773;51.192;7.024;2023-03-23T04:35:41;11.00;99.90
13405;DHT22;6773;51.192;7.024;2023-03-23T04:38:08;10.90;99.90
13405;DHT22;6773;51.192;7.024;2023-03-23T04:40:39;11.00;99.90
13405;DHT22;6773;51.192;7.024;2023-03-23T04:43:06;10.90;99.90
13405;DHT22;6773;51.192;7.024;2023-03-23T04:45:33;10.90;99.90
13405;DHT22;6773;51.192;7.024;2023-03-23T04:50:31;10.90;99.90
13405;DHT22;6773;51.192;7.024;2023-03-23T04:52:58;10.90;99.90
13405;DHT22;6773;51.192;7.024;2023-03-23T04:55:32;10.90;99.90
13405;DHT22;6773;51.192;7.024;2023-03-23T04:58:05;10.90;99.90
13405;DHT22;6773;51.192;7.024;2023-03-23T05:00:31;10.90;99.90
13405;DHT22;6773;51.192;7.024;2023-03-23T05:02:58;10.90;99.90
13405;DHT22;6773;51.192;7.024;2023-03-23T05:05:24;10.90;99.90
13405;DHT22;6773;51.192;7.024;2023-03-23T05:07:50;10.90;99.90
13405;DHT22;6773;51.192;7.024;2023-03-23T05:10:17;10.90;99.90
13405;DHT22;6773;51.192;7.024;2023-03-23T05:12:43;10.90;99.90
13405;DHT22;6773;51.192;7.024;2023-03-23T05:15:11;10.90;99.90
13405;DHT22;6773;51.192;7.024;2023-03-23T05:17:38;11.00;99.90
13405;DHT22;6773;51.192;7.024;2023-03-23T05:20:05;10.90;99.90
13405;DHT22;6773;51.192;7.024;2023-03-23T05:22:36;10.90;99.90
13405;DHT22;6773;51.192;7.024;2023-03-23T05:25:02;10.90;99.90
13405;DHT22;6773;51.192;7.024;2023-03-23T05:27:28;11.00;99.90
13405;DHT22;6773;51.192;7.024;2023-03-23T05:29:56;11.10;99.90
13405;DHT22;6773;51.192;7.024;2023-03-23T05:32:24;11.20;99.90
13405;DHT22;6773;51.192;7.024;2023-03-23T05:35:03;11.20;99.90
13405;DHT22;6773;51.192;7.024;2023-03-23T05:39:59;11.10;99.90
13405;DHT22;6773;51.192;7.024;2023-03-23T05:42:31;11.10;99.90
13405;DHT22;6773;51.192;7.024;2023-03-23T05:44:57;11.10;99.90
13405;DHT22;6773;51.192;7.024;2023-03-23T05:47:23;11.10;99.90
13405;DHT22;6773;51.192;7.024;2023-03-23T05:49:51;11.10;99.90
13405;DHT22;6773;51.192;7.024;2023-03-23T05:52:18;11.10;99.90
13405;DHT22;6773;51.192;7.024;2023-03-23T05:54:44;11.10;99.90
13405;DHT22;6773;51.192;7.024;2023-03-23T05:57:10;11.10;99.90
13405;DHT22;6773;51.192;7.024;2023-03-23T06:02:03;11.10;99.90
13405;DHT22;6773;51.192;7.024;2023-03-23T06:04:28;11.00;99.90
13405;DHT22;6773;51.192;7.024;2023-03-23T06:06:54;11.00;99.90
13405;DHT22;6773;51.192;7.024;2023-03-23T06:09:20;11.00;99.90
13405;DHT22;6773;51.192;7.024;2023-03-23T06:11:46;11.00;99.90
13405;DHT22;6773;51.192;7.024;2023-03-23T06:14:13;11.00;99.90
13405;DHT22;6773;51.192;7.024;2023-03-23T06:16:38;11.10;99.90
13405;DHT22;6773;51.192;7.024;2023-03-23T06:19:04;11.10;99.90
13405;DHT22;6773;51.192;7.024;2023-03-23T06:21:30;11.10;99.90
13405;DHT22;6773;51.192;7.024;2023-03-23T06:23:57;11.10;99.90
13405;DHT22;6773;51.192;7.024;2023-03-23T06:26:28;11.10;99.90
13405;DHT22;6773;51.192;7.024;2023-03-23T06:28:56;11.10;99.90
13405;DHT22;6773;51.192;7.024;2023-03-23T06:31:23;11.20;99.90
13405;DHT22;6773;51.192;7.024;2023-03-23T06:33:49;11.20;99.90
13405;DHT22;6773;51.192;7.024;2023-03-23T06:38:42;11.30;99.90
13405;DHT22;6773;51.192;7.024;2023-03-23T06:46:02;11.50;99.90
13405;DHT22;6773;51.192;7.024;2023-03-23T06:48:28;11.50;99.90
13405;DHT22;6773;51.192;7.024;2023-03-23T06:50:54;11.50;99.90
13405;DHT22;6773;51.192;7.024;2023-03-23T06:53:19;11.60;99.90
13405;DHT22;6773;51.192;7.024;2023-03-23T06:55:46;11.60;99.90
13405;DHT22;6773;51.192;7.024;2023-03-23T06:58:12;11.60;99.90
13405;DHT22;6773;51.192;7.024;2023-03-23T07:00:38;11.60;99.90
13405;DHT22;6773;51.192;7.024;2023-03-23T07:03:06;11.70;99.90
13405;DHT22;6773;51.192;7.024;2023-03-23T07:05:35;11.70;99.90
13405;DHT22;6773;51.192;7.024;2023-03-23T07:08:02;11.80;99.90
13405;DHT22;6773;51.192;7.024;2023-03-23T07:12:54;11.80;99.90
13405;DHT22;6773;51.192;7.024;2023-03-23T07:15:20;11.80;99.90
13405;DHT22;6773;51.192;7.024;2023-03-23T07:17:47;11.80;99.90
13405;DHT22;6773;51.192;7.024;2023-03-23T07:20:13;11.80;99.90
13405;DHT22;6773;51.192;7.024;2023-03-23T07:22:40;11.80;99.90
13405;DHT22;6773;51.192;7.024;2023-03-23T07:25:06;11.80;99.90
13405;DHT22;6773;51.192;7.024;2023-03-23T07:27:32;11.80;99.90
13405;DHT22;6773;51.192;7.024;2023-03-23T07:29:59;11.90;99.90
13405;DHT22;6773;51.192;7.024;2023-03-23T07:32:25;11.90;99.90
13405;DHT22;6773;51.192;7.024;2023-03-23T07:34:51;11.90;99.90
13405;DHT22;6773;51.192;7.024;2023-03-23T07:39:43;11.90;99.90
13405;DHT22;6773;51.192;7.024;2023-03-23T07:42:09;11.90;99.90
13405;DHT22;6773;51.192;7.024;2023-03-23T07:44:35;11.90;99.90
13405;DHT22;6773;51.192;7.024;2023-03-23T07:47:01;11.90;99.90
13405;DHT22;6773;51.192;7.024;2023-03-23T07:51:53;12.00;99.90
13405;DHT22;6773;51.192;7.024;2023-03-23T07:54:18;12.00;99.90
13405;DHT22;6773;51.192;7.024;2023-03-23T07:59:11;12.00;99.90
13405;DHT22;6773;51.192;7.024;2023-03-23T08:01:38;12.10;99.90
13405;DHT22;6773;51.192;7.024;2023-03-23T08:04:05;12.10;99.90
13405;DHT22;6773;51.192;7.024;2023-03-23T08:06:32;12.10;99.90
13405;DHT22;6773;51.192;7.024;2023-03-23T08:08:59;12.10;99.90
13405;DHT22;6773;51.192;7.024;2023-03-23T08:11:26;12.10;99.90
13405;DHT22;6773;51.192;7.024;2023-03-23T08:13:51;12.10;99.90
13405;DHT22;6773;51.192;7.024;2023-03-23T08:16:17;12.10;99.90
13405;DHT22;6773;51.192;7.024;2023-03-23T08:18:44;12.10;99.90
13405;DHT22;6773;51.192;7.024;2023-03-23T08:23:36;12.20;99.90
13405;DHT22;6773;51.192;7.024;2023-03-23T08:26:06;12.20;99.90
13405;DHT22;6773;51.192;7.024;2023-03-23T08:28:36;12.20;99.90
13405;DHT22;6773;51.192;7.024;2023-03-23T08:31:07;12.20;99.90
13405;DHT22;6773;51.192;7.024;2023-03-23T08:33:33;12.20;99.90
13405;DHT22;6773;51.192;7.024;2023-03-23T08:36:00;12.30;99.90
13405;DHT22;6773;51.192;7.024;2023-03-23T08:38:27;12.30;99.90
13405;DHT22;6773;51.192;7.024;2023-03-23T08:40:58;12.30;99.90
13405;DHT22;6773;51.192;7.024;2023-03-23T08:43:24;12.30;99.90
13405;DHT22;6773;51.192;7.024;2023-03-23T08:45:50;12.40;99.90
13405;DHT22;6773;51.192;7.024;2023-03-23T08:48:17;12.40;99.90
13405;DHT22;6773;51.192;7.024;2023-03-23T08:50:43;12.40;99.90
13405;DHT22;6773;51.192;7.024;2023-03-23T08:53:09;12.40;99.90
13405;DHT22;6773;51.192;7.024;2023-03-23T08:55:35;12.50;99.90
13405;DHT22;6773;51.192;7.024;2023-03-23T08:58:01;12.50;99.90
13405;DHT22;6773;51.192;7.024;2023-03-23T09:00:28;12.50;99.90
13405;DHT22;6773;51.192;7.024;2023-03-23T09:02:54;12.60;99.90
13405;DHT22;6773;51.192;7.024;2023-03-23T09:05:24;12.60;99.90
13405;DHT22;6773;51.192;7.024;2023-03-23T09:07:53;12.60;99.90
13405;DHT22;6773;51.192;7.024;2023-03-23T09:12:46;12.70;99.90
13405;DHT22;6773;51.192;7.024;2023-03-23T09:15:14;12.70;99.90
13405;DHT22;6773;51.192;7.024;2023-03-23T09:17:45;12.70;99.90
13405;DHT22;6773;51.192;7.024;2023-03-23T09:20:12;12.60;99.90
13405;DHT22;6773;51.192;7.024;2023-03-23T09:22:44;12.60;99.90
13405;DHT22;6773;51.192;7.024;2023-03-23T09:25:12;12.60;99.90
13405;DHT22;6773;51.192;7.024;2023-03-23T09:27:39;12.70;99.90
13405;DHT22;6773;51.192;7.024;2023-03-23T09:30:09;12.70;99.90
13405;DHT22;6773;51.192;7.024;2023-03-23T09:32:36;12.70;99.90
13405;DHT22;6773;51.192;7.024;2023-03-23T09:35:04;12.80;99.90
13405;DHT22;6773;51.192;7.024;2023-03-23T09:37:31;12.80;99.90
13405;DHT22;6773;51.192;7.024;2023-03-23T09:39:58;12.90;99.90
13405;DHT22;6773;51.192;7.024;2023-03-23T09:43:13;12.80;99.90
13405;DHT22;6773;51.192;7.024;2023-03-23T09:48:03;12.80;99.90
13405;DHT22;6773;51.192;7.024;2023-03-23T09:50:33;12.80;99.90
13405;DHT22;6773;51.192;7.024;2023-03-23T09:53:17;12.80;99.90
13405;DHT22;6773;51.192;7.024;2023-03-23T09:55:44;12.80;99.90
13405;DHT22;6773;51.192;7.024;2023-03-23T09:58:22;12.80;99.90
13405;DHT22;6773;51.192;7.024;2023-03-23T10:01:04;12.80;99.90
13405;DHT22;6773;51.192;7.024;2023-03-23T10:03:41;12.80;99.90
13405;DHT22;6773;51.192;7.024;2023-03-23T10:06:13;12.80;99.90
13405;DHT22;6773;51.192;7.024;2023-03-23T10:08:45;12.80;99.90
13405;DHT22;6773;51.192;7.024;2023-03-23T10:16:42;12.80;99.90
13405;DHT22;6773;51.192;7.024;2023-03-23T10:21:47;12.80;99.90
13405;DHT22;6773;51.192;7.024;2023-03-23T10:24:20;12.80;99.90
13405;DHT22;6773;51.192;7.024;2023-03-23T10:29:22;12.90;99.90
13405;DHT22;6773;51.192;7.024;2023-03-23T10:31:53;12.90;99.90
13405;DHT22;6773;51.192;7.024;2023-03-23T10:34:35;12.90;99.90
13405;DHT22;6773;51.192;7.024;2023-03-23T10:39:31;12.40;99.90
13405;DHT22;6773;51.192;7.024;2023-03-23T10:42:01;11.70;99.90
13405;DHT22;6773;51.192;7.024;2023-03-23T10:44:33;11.30;99.90
13405;DHT22;6773;51.192;7.024;2023-03-23T10:47:05;10.90;99.90
13405;DHT22;6773;51.192;7.024;2023-03-23T10:49:58;10.50;99.90
13405;DHT22;6773;51.192;7.024;2023-03-23T10:52:38;10.30;99.90
13405;DHT22;6773;51.192;7.024;2023-03-23T10:55:08;10.20;99.90
13405;DHT22;6773;51.192;7.024;2023-03-23T10:57:36;10.20;99.90
13405;DHT22;6773;51.192;7.024;2023-03-23T11:00:17;10.20;99.90
13405;DHT22;6773;51.192;7.024;2023-03-23T11:05:50;10.20;99.90
13405;DHT22;6773;51.192;7.024;2023-03-23T11:08:26;10.20;99.90
13405;DHT22;6773;51.192;7.024;2023-03-23T11:10:55;10.30;99.90
13405;DHT22;6773;51.192;7.024;2023-03-23T11:13:23;10.30;99.90
13405;DHT22;6773;51.192;7.024;2023-03-23T11:15:52;10.30;99.90
13405;DHT22;6773;51.192;7.024;2023-03-23T11:18:25;10.40;99.90
13405;DHT22;6773;51.192;7.024;2023-03-23T11:20:56;10.40;99.90
13405;DHT22;6773;51.192;7.024;2023-03-23T11:23:39;10.50;99.90
13405;DHT22;6773;51.192;7.024;2023-03-23T11:28:53;10.50;99.90
13405;DHT22;6773;51.192;7.024;2023-03-23T11:31:27;10.50;99.90
13405;DHT22;6773;51.192;7.024;2023-03-23T11:34:03;10.60;99.90
13405;DHT22;6773;51.192;7.024;2023-03-23T11:36:41;10.60;99.90
13405;DHT22;6773;51.192;7.024;2023-03-23T11:39:31;10.50;99.90
13405;DHT22;6773;51.192;7.024;2023-03-23T11:41:59;10.50;99.90
13405;DHT22;6773;51.192;7.024;2023-03-23T11:44:41;10.60;99.90
13405;DHT22;6773;51.192;7.024;2023-03-23T11:47:36;10.50;99.90
13405;DHT22;6773;51.192;7.024;2023-03-23T11:53:45;10.40;99.90
13405;DHT22;6773;51.192;7.024;2023-03-23T11:56:26;10.60;99.90
13405;DHT22;6773;51.192;7.024;2023-03-23T11:58:54;10.70;99.90
13405;DHT22;6773;51.192;7.024;2023-03-23T12:07:30;10.90;99.90
13405;DHT22;6773;51.192;7.024;2023-03-23T12:15:38;11.00;99.90
13405;DHT22;6773;51.192;7.024;2023-03-23T12:18:21;10.90;99.90
13405;DHT22;6773;51.192;7.024;2023-03-23T12:23:20;10.90;99.90
13405;DHT22;6773;51.192;7.024;2023-03-23T12:28:22;10.80;99.90
13405;DHT22;6773;51.192;7.024;2023-03-23T12:31:15;10.80;99.90
13405;DHT22;6773;51.192;7.024;2023-03-23T12:41:41;11.00;99.90
13405;DHT22;6773;51.192;7.024;2023-03-23T12:44:11;11.20;99.90
13405;DHT22;6773;51.192;7.024;2023-03-23T12:47:13;11.20;99.90
13405;DHT22;6773;51.192;7.024;2023-03-23T12:49:49;11.30;99.90
13405;DHT22;6773;51.192;7.024;2023-03-23T12:54:53;11.50;99.90
13405;DHT22;6773;51.192;7.024;2023-03-23T13:00:21;11.50;99.90
13405;DHT22;6773;51.192;7.024;2023-03-23T13:05:47;11.60;99.90
13405;DHT22;6773;51.192;7.024;2023-03-23T13:08:26;11.60;99.90
13405;DHT22;6773;51.192;7.024;2023-03-23T13:10:56;11.60;99.90
13405;DHT22;6773;51.192;7.024;2023-03-23T13:13:26;11.50;99.90
13405;DHT22;6773;51.192;7.024;2023-03-23T13:16:09;11.50;99.90
13405;DHT22;6773;51.192;7.024;2023-03-23T13:18:59;11.40;99.90
13405;DHT22;6773;51.192;7.024;2023-03-23T13:24:30;11.40;99.90
13405;DHT22;6773;51.192;7.024;2023-03-23T13:26:58;11.30;99.90
13405;DHT22;6773;51.192;7.024;2023-03-23T13:32:04;11.50;99.90
13405;DHT22;6773;51.192;7.024;2023-03-23T13:34:31;11.50;99.90
13405;DHT22;6773;51.192;7.024;2023-03-23T13:37:05;11.60;99.90
13405;DHT22;6773;51.192;7.024;2023-03-23T13:39:37;11.60;99.90
13405;DHT22;6773;51.192;7.024;2023-03-23T14:08:38;11.60;99.90
13405;DHT22;6773;51.192;7.024;2023-03-23T14:11:17;11.60;99.90
13405;DHT22;6773;51.192;7.024;2023-03-23T14:14:03;11.60;99.90
13405;DHT22;6773;51.192;7.024;2023-03-23T14:16:40;11.60;99.90
13405;DHT22;6773;51.192;7.024;2023-03-23T14:19:27;11.60;99.90
13405;DHT22;6773;51.192;7.024;2023-03-23T14:21:58;11.50;99.90
13405;DHT22;6773;51.192;7.024;2023-03-23T14:24:27;11.60;99.90
13405;DHT22;6773;51.192;7.024;2023-03-23T14:27:12;11.60;99.90
13405;DHT22;6773;51.192;7.024;2023-03-23T14:29:39;11.70;99.90
13405;DHT22;6773;51.192;7.024;2023-03-23T14:32:16;11.80;99.90
13405;DHT22;6773;51.192;7.024;2023-03-23T14:34:46;11.80;99.90
13405;DHT22;6773;51.192;7.024;2023-03-23T14:37:14;11.80;99.90
13405;DHT22;6773;51.192;7.024;2023-03-23T14:39:46;11.90;99.90
13405;DHT22;6773;51.192;7.024;2023-03-23T14:42:14;11.90;99.90
13405;DHT22;6773;51.192;7.024;2023-03-23T14:44:49;11.80;99.90
13405;DHT22;6773;51.192;7.024;2023-03-23T14:47:37;11.90;99.90
13405;DHT22;6773;51.192;7.024;2023-03-23T14:50:05;11.90;99.90
13405;DHT22;6773;51.192;7.024;2023-03-23T14:52:36;11.90;99.90
13405;DHT22;6773;51.192;7.024;2023-03-23T14:55:20;11.80;99.90
13405;DHT22;6773;51.192;7.024;2023-03-23T14:57:48;11.90;99.90
13405;DHT22;6773;51.192;7.024;2023-03-23T15:00:15;11.90;99.90
13405;DHT22;6773;51.192;7.024;2023-03-23T15:02:44;11.90;99.90
13405;DHT22;6773;51.192;7.024;2023-03-23T15:05:19;11.90;99.90
13405;DHT22;6773;51.192;7.024;2023-03-23T15:07:50;11.90;99.90
13405;DHT22;6773;51.192;7.024;2023-03-23T15:10:19;11.90;99.90
13405;DHT22;6773;51.192;7.024;2023-03-23T15:12:46;11.80;99.90
13405;DHT22;6773;51.192;7.024;2023-03-23T15:15:23;11.80;99.90
13405;DHT22;6773;51.192;7.024;2023-03-23T15:23:26;11.80;99.90
13405;DHT22;6773;51.192;7.024;2023-03-23T15:25:54;11.90;99.90
13405;DHT22;6773;51.192;7.024;2023-03-23T15:28:22;12.10;99.90
13405;DHT22;6773;51.192;7.024;2023-03-23T15:31:00;12.60;99.90
13405;DHT22;6773;51.192;7.024;2023-03-23T15:33:26;13.00;99.90
13405;DHT22;6773;51.192;7.024;2023-03-23T15:35:55;13.30;99.90
13405;DHT22;6773;51.192;7.024;2023-03-23T15:40:50;13.50;99.90
13405;DHT22;6773;51.192;7.024;2023-03-23T15:43:20;13.50;99.90
13405;DHT22;6773;51.192;7.024;2023-03-23T15:48:19;13.50;99.90
13405;DHT22;6773;51.192;7.024;2023-03-23T15:50:47;13.70;99.90
13405;DHT22;6773;51.192;7.024;2023-03-23T15:53:25;13.70;99.90
13405;DHT22;6773;51.192;7.024;2023-03-23T15:55:51;13.70;99.90
13405;DHT22;6773;51.192;7.024;2023-03-23T15:58:17;13.70;99.90
13405;DHT22;6773;51.192;7.024;2023-03-23T16:00:43;13.60;99.90
13405;DHT22;6773;51.192;7.024;2023-03-23T16:03:15;13.50;99.90
13405;DHT22;6773;51.192;7.024;2023-03-23T16:05:42;13.30;99.90
13405;DHT22;6773;51.192;7.024;2023-03-23T16:08:10;13.20;99.90
13405;DHT22;6773;51.192;7.024;2023-03-23T16:13:03;13.10;99.90
13405;DHT22;6773;51.192;7.024;2023-03-23T16:15:30;13.10;99.90
13405;DHT22;6773;51.192;7.024;2023-03-23T16:17:55;13.00;99.90
13405;DHT22;6773;51.192;7.024;2023-03-23T16:20:22;13.00;99.90
13405;DHT22;6773;51.192;7.024;2023-03-23T16:22:49;12.90;99.90
13405;DHT22;6773;51.192;7.024;2023-03-23T16:25:16;12.80;99.90
13405;DHT22;6773;51.192;7.024;2023-03-23T16:27:43;12.80;99.90
13405;DHT22;6773;51.192;7.024;2023-03-23T16:30:18;12.70;99.90
13405;DHT22;6773;51.192;7.024;2023-03-23T16:32:44;12.60;99.90
13405;DHT22;6773;51.192;7.024;2023-03-23T16:40:04;12.90;99.90
13405;DHT22;6773;51.192;7.024;2023-03-23T16:42:30;13.00;99.90
13405;DHT22;6773;51.192;7.024;2023-03-23T16:44:56;13.00;99.90
13405;DHT22;6773;51.192;7.024;2023-03-23T16:47:21;13.20;99.90
13405;DHT22;6773;51.192;7.024;2023-03-23T16:49:51;13.30;99.90
13405;DHT22;6773;51.192;7.024;2023-03-23T16:52:17;13.30;99.90
13405;DHT22;6773;51.192;7.024;2023-03-23T16:57:10;13.30;99.90
13405;DHT22;6773;51.192;7.024;2023-03-23T17:02:02;13.30;99.90
13405;DHT22;6773;51.192;7.024;2023-03-23T17:04:29;13.30;99.90
13405;DHT22;6773;51.192;7.024;2023-03-23T17:06:55;13.20;99.90
13405;DHT22;6773;51.192;7.024;2023-03-23T17:11:49;13.20;99.90
13405;DHT22;6773;51.192;7.024;2023-03-23T17:16:41;13.20;99.90
13405;DHT22;6773;51.192;7.024;2023-03-23T17:19:06;13.20;99.90
13405;DHT22;6773;51.192;7.024;2023-03-23T17:21:32;13.20;99.90
13405;DHT22;6773;51.192;7.024;2023-03-23T17:23:58;13.10;99.90
13405;DHT22;6773;51.192;7.024;2023-03-23T17:26:23;13.20;99.90
13405;DHT22;6773;51.192;7.024;2023-03-23T17:28:49;13.20;99.90
13405;DHT22;6773;51.192;7.024;2023-03-23T17:31:14;13.20;99.90
13405;DHT22;6773;51.192;7.024;2023-03-23T17:33:40;13.20;99.90
13405;DHT22;6773;51.192;7.024;2023-03-23T17:36:07;13.20;99.90
13405;DHT22;6773;51.192;7.024;2023-03-23T17:38:33;13.20;99.90
13405;DHT22;6773;51.192;7.024;2023-03-23T17:40:59;13.20;99.90
13405;DHT22;6773;51.192;7.024;2023-03-23T17:43:26;13.10;99.90
13405;DHT22;6773;51.192;7.024;2023-03-23T17:48:17;13.20;99.90
13405;DHT22;6773;51.192;7.024;2023-03-23T17:50:52;13.10;99.90
13405;DHT22;6773;51.192;7.024;2023-03-23T17:53:18;13.10;99.90
13405;DHT22;6773;51.192;7.024;2023-03-23T17:55:43;13.00;99.90
13405;DHT22;6773;51.192;7.024;2023-03-23T18:00:37;12.90;99.90
13405;DHT22;6773;51.192;7.024;2023-03-23T18:03:02;12.90;99.90
13405;DHT22;6773;51.192;7.024;2023-03-23T18:05:28;13.00;99.90
13405;DHT22;6773;51.192;7.024;2023-03-23T18:07:53;13.00;99.90
13405;DHT22;6773;51.192;7.024;2023-03-23T18:12:47;12.90;99.90
13405;DHT22;6773;51.192;7.024;2023-03-23T18:15:13;12.90;99.90
13405;DHT22;6773;51.192;7.024;2023-03-23T18:20:06;12.90;99.90
13405;DHT22;6773;51.192;7.024;2023-03-23T18:24:58;12.80;99.90
13405;DHT22;6773;51.192;7.024;2023-03-23T18:27:24;12.90;99.90
13405;DHT22;6773;51.192;7.024;2023-03-23T18:32:16;12.80;99.90
13405;DHT22;6773;51.192;7.024;2023-03-23T18:34:44;12.80;99.90
13405;DHT22;6773;51.192;7.024;2023-03-23T18:37:11;12.70;99.90
13405;DHT22;6773;51.192;7.024;2023-03-23T18:42:04;12.60;99.90
13405;DHT22;6773;51.192;7.024;2023-03-23T18:44:30;12.50;99.90
13405;DHT22;6773;51.192;7.024;2023-03-23T18:49:22;12.50;99.90
13405;DHT22;6773;51.192;7.024;2023-03-23T18:51:47;12.40;99.90
13405;DHT22;6773;51.192;7.024;2023-03-23T18:54:13;12.40;99.90
13405;DHT22;6773;51.192;7.024;2023-03-23T18:56:39;12.50;99.90
13405;DHT22;6773;51.192;7.024;2023-03-23T18:59:04;12.50;99.90
13405;DHT22;6773;51.192;7.024;2023-03-23T19:01:31;12.50;99.90
13405;DHT22;6773;51.192;7.024;2023-03-23T19:03:56;12.40;99.90
13405;DHT22;6773;51.192;7.024;2023-03-23T19:06:24;12.50;99.90
13405;DHT22;6773;51.192;7.024;2023-03-23T19:08:50;12.50;99.90
13405;DHT22;6773;51.192;7.024;2023-03-23T19:11:17;12.50;99.90
13405;DHT22;6773;51.192;7.024;2023-03-23T19:13:43;12.40;99.90